Time;durP1;ratioP1;P1;durP2;ratioP2;P2;SDS_P1;SDS_P2;PMS_P1;PMS_P2;Temp;Humidity;BMP_temperature;BMP_pressure;BME280_temperature;BME280_humidity;BME280_pressure;Samples;Min_cycle;Max_cycle;Signal;HPM_P1;HPM_P2
2022/09/08 00:00:36;;;;;;;0.30;0.30;;;16.70;99.90;;;;;;5115125;28;20160;-80
2022/09/08 00:03:06;;;;;;;0.95;0.50;;;16.60;99.90;;;;;;5114650;28;20031;-79
2022/09/08 00:05:36;;;;;;;0.95;0.70;;;16.60;99.90;;;;;;5116325;28;20092;-80
2022/09/08 00:08:03;;;;;;;0.40;0.40;;;16.60;99.90;;;;;;5127833;28;20044;-78
2022/09/08 00:10:30;;;;;;;0.85;0.50;;;16.60;99.90;;;;;;5135042;28;20022;-77
2022/09/08 00:12:56;;;;;;;4.90;0.73;;;;;;;;;;5103626;28;20020;-82
2022/09/08 00:15:23;;;;;;;0.50;0.45;;;16.50;99.90;;;;;;5114587;28;20062;-82
2022/09/08 00:17:49;;;;;;;0.93;0.60;;;16.50;99.90;;;;;;5116127;28;20028;-73
2022/09/08 00:20:15;;;;;;;1.23;0.65;;;16.50;99.90;;;;;;5125097;28;20075;-75
2022/09/08 00:22:41;;;;;;;0.65;0.60;;;16.50;99.90;;;;;;5127150;28;20102;-81
2022/09/08 00:25:07;;;;;;;0.85;0.55;;;16.50;99.90;;;;;;5114904;28;20440;-79
2022/09/08 00:27:32;;;;;;;0.77;0.22;;;16.40;99.90;;;;;;5113868;28;20032;-73
2022/09/08 00:29:58;;;;;;;0.30;0.30;;;16.40;99.90;;;;;;5114199;28;20521;-75
2022/09/08 00:32:24;;;;;;;0.63;0.60;;;16.30;99.90;;;;;;5114037;28;20521;-74
2022/09/08 00:34:50;;;;;;;0.73;0.52;;;16.30;99.90;;;;;;5123611;28;20016;-78
2022/09/08 00:37:17;;;;;;;0.73;0.73;;;16.30;99.90;;;;;;5124058;28;20087;-80
2022/09/08 00:39:42;;;;;;;1.25;0.80;;;16.30;99.90;;;;;;5114646;28;20016;-79
2022/09/08 00:42:08;;;;;;;0.40;0.40;;;16.30;99.90;;;;;;5113363;28;20031;-79
2022/09/08 00:44:48;;;;;;;0.47;0.45;;;16.30;99.90;;;;;;5115067;28;20072;-79
2022/09/08 00:48:03;;;;;;;0.40;0.40;;;16.20;99.90;;;;;;5113677;28;20158;-81
2022/09/08 00:50:29;;;;;;;4.05;0.30;;;16.20;99.90;;;;;;4995064;28;20506;-77
2022/09/08 00:53:04;;;;;;;0.65;0.65;;;16.30;99.90;;;;;;4995136;28;20121;-78
2022/09/08 00:55:34;;;;;;;0.30;0.30;;;16.30;99.90;;;;;;5065647;28;20458;-78
2022/09/08 00:58:00;;;;;;;0.45;0.45;;;16.20;99.90;;;;;;5095379;28;20573;-78
2022/09/08 01:00:28;;;;;;;0.40;0.40;;;16.20;99.90;;;;;;5113680;28;20046;-77
2022/09/08 01:02:54;;;;;;;0.10;0.10;;;16.20;99.90;;;;;;5113485;28;20027;-77
2022/09/08 01:05:24;;;;;;;1.40;0.40;;;16.10;99.90;;;;;;5095458;28;20027;-79
2022/09/08 01:13:43;;;;;;;0.45;0.45;;;16.00;99.90;;;;;;5113369;28;20030;-75
2022/09/08 01:16:10;;;;;;;0.25;0.25;;;16.00;99.90;;;;;;5113483;28;20019;-75
2022/09/08 01:18:38;;;;;;;0.38;0.38;;;16.00;99.90;;;;;;5113508;28;20111;-74
2022/09/08 01:21:23;;;;;;;8.27;1.13;;;16.00;99.90;;;;;;5095368;28;20023;-75
2022/09/08 01:24:08;;;;;;;0.90;0.63;;;16.00;99.90;;;;;;5095360;28;20019;-78
2022/09/08 01:26:41;;;;;;;0.28;0.28;;;16.00;99.90;;;;;;5096114;28;20038;-77
2022/09/08 01:29:08;;;;;;;0.60;0.60;;;16.00;99.90;;;;;;5095274;28;20031;-77
2022/09/08 01:31:39;;;;;;;1.58;0.50;;;16.00;99.90;;;;;;5113481;28;20039;-77
2022/09/08 01:34:05;;;;;;;1.65;0.35;;;16.00;99.90;;;;;;5113752;28;20055;-77
2022/09/08 01:36:31;;;;;;;0.17;0.17;;;16.00;99.90;;;;;;5113476;28;20491;-79
2022/09/08 01:38:57;;;;;;;0.93;0.55;;;15.90;99.90;;;;;;5113304;28;20015;-78
2022/09/08 01:41:23;;;;;;;1.75;0.68;;;15.90;99.90;;;;;;5113412;28;20088;-78
2022/09/08 01:43:48;;;;;;;0.30;0.30;;;15.90;99.90;;;;;;5095003;28;20035;-77
2022/09/08 01:46:14;;;;;;;2.40;0.47;;;16.00;99.90;;;;;;5113061;28;20545;-80
2022/09/08 01:48:40;;;;;;;0.47;0.47;;;15.90;99.90;;;;;;5113157;28;20032;-74
2022/09/08 01:51:07;;;;;;;0.25;0.25;;;15.90;99.90;;;;;;5113047;28;20016;-78
2022/09/08 01:53:34;;;;;;;1.08;0.38;;;15.90;99.90;;;;;;5115650;28;20031;-78
2022/09/08 01:56:01;;;;;;;1.02;0.40;;;15.90;99.90;;;;;;5120449;28;20104;-80
2022/09/08 01:58:27;;;;;;;0.50;0.50;;;15.90;99.90;;;;;;5117395;28;20046;-80
2022/09/08 02:00:53;;;;;;;6.72;0.47;;;15.90;99.90;;;;;;5116769;28;20380;-78
2022/09/08 02:03:19;;;;;;;0.20;0.20;;;15.90;99.90;;;;;;5116458;28;20078;-78
2022/09/08 02:05:45;;;;;;;1.38;0.50;;;15.90;99.90;;;;;;5116571;28;20099;-78
2022/09/08 02:08:12;;;;;;;1.42;0.63;;;15.90;99.90;;;;;;5116559;28;20028;-80
2022/09/08 02:10:38;;;;;;;0.65;0.30;;;15.90;99.90;;;;;;5116459;28;20479;-75
2022/09/08 02:13:05;;;;;;;0.52;0.30;;;15.80;99.90;;;;;;5098204;28;20033;-76
2022/09/08 02:15:31;;;;;;;1.73;0.50;;;15.80;99.90;;;;;;5116390;28;20023;-75
2022/09/08 02:17:57;;;;;;;1.10;1.02;;;15.70;99.90;;;;;;5098105;28;20103;-75
2022/09/08 02:20:23;;;;;;;0.30;0.28;;;15.70;99.90;;;;;;5116378;28;20511;-78
2022/09/08 02:22:49;;;;;;;0.55;0.55;;;15.80;99.90;;;;;;5116213;28;20578;-74
2022/09/08 02:25:14;;;;;;;0.15;0.15;;;15.80;99.90;;;;;;5097766;28;20024;-77
2022/09/08 02:27:40;;;;;;;0.45;0.45;;;15.70;99.90;;;;;;5116219;28;20063;-80
2022/09/08 02:30:07;;;;;;;0.70;0.70;;;15.70;99.90;;;;;;5097991;28;20015;-79
2022/09/08 02:32:35;;;;;;;2.42;1.20;;;15.70;99.90;;;;;;5116267;28;20027;-78
2022/09/08 02:35:01;;;;;;;0.10;0.10;;;15.70;99.90;;;;;;5116043;28;20019;-79
2022/09/08 02:37:26;;;;;;;0.30;0.30;;;15.70;99.90;;;;;;5115991;28;20035;-79
2022/09/08 02:39:52;;;;;;;0.17;0.17;;;15.70;99.90;;;;;;5115950;28;20022;-78
2022/09/08 02:42:18;;;;;;;0.30;0.30;;;15.60;99.90;;;;;;5115690;28;20111;-78
2022/09/08 02:44:43;;;;;;;0.00;0.00;;;15.60;99.90;;;;;;5116134;28;20020;-79
2022/09/08 02:47:09;;;;;;;0.30;0.30;;;15.60;99.90;;;;;;5116089;28;20030;-80
2022/09/08 02:49:35;;;;;;;0.32;0.32;;;15.60;99.90;;;;;;5115946;28;20547;-77
2022/09/08 02:52:01;;;;;;;0.30;0.20;;;15.50;99.90;;;;;;5115986;28;20035;-78
2022/09/08 02:54:27;;;;;;;0.30;0.30;;;15.50;99.90;;;;;;5115795;28;20019;-83
2022/09/08 02:56:52;;;;;;;0.20;0.20;;;15.40;99.90;;;;;;5106619;28;20035;-76
2022/09/08 02:59:18;;;;;;;0.35;0.30;;;15.40;99.90;;;;;;5129171;28;20101;-81
2022/09/08 03:01:44;;;;;;;0.20;0.20;;;15.40;99.90;;;;;;5131147;28;20046;-76
2022/09/08 03:04:10;;;;;;;0.70;0.70;;;15.40;99.90;;;;;;5133753;28;20039;-74
2022/09/08 03:06:37;;;;;;;1.75;0.30;;;15.40;99.90;;;;;;5134457;28;20035;-79
2022/09/08 03:09:04;;;;;;;0.38;0.22;;;15.40;99.90;;;;;;5133043;28;20012;-79
2022/09/08 03:11:31;;;;;;;0.20;0.20;;;15.40;99.90;;;;;;5124372;28;20039;-79
2022/09/08 03:13:57;;;;;;;4.70;0.32;;;15.30;99.90;;;;;;5120606;28;20020;-79
2022/09/08 03:16:24;;;;;;;0.15;0.15;;;15.30;99.90;;;;;;5102878;28;20024;-77
2022/09/08 03:18:50;;;;;;;1.05;0.40;;;15.30;99.90;;;;;;5097598;28;20027;-79
2022/09/08 03:21:15;;;;;;;0.47;0.47;;;15.20;99.90;;;;;;5119170;28;20027;-78
2022/09/08 03:23:41;;;;;;;0.63;0.63;;;15.30;99.90;;;;;;5119810;28;20102;-79
2022/09/08 03:26:13;;;;;;;0.47;0.30;;;15.30;99.90;;;;;;5115447;28;20477;-78
2022/09/08 03:28:40;;;;;;;4.00;1.65;;;15.20;99.90;;;;;;5115272;28;20507;-79
2022/09/08 03:31:08;;;;;;;0.22;0.22;;;15.30;99.90;;;;;;5115261;28;20180;-79
2022/09/08 03:33:34;;;;;;;0.50;0.28;;;15.30;99.90;;;;;;5115134;28;20015;-80
2022/09/08 03:36:01;;;;;;;0.38;0.38;;;15.30;99.90;;;;;;5114840;28;20089;-78
2022/09/08 03:38:27;;;;;;;0.20;0.20;;;15.20;99.90;;;;;;5118778;28;20020;-80
2022/09/08 03:40:53;;;;;;;0.10;0.10;;;15.10;99.90;;;;;;5116247;28;20046;-79
2022/09/08 03:43:19;;;;;;;0.20;0.20;;;15.10;99.90;;;;;;5116083;28;20492;-75
2022/09/08 03:45:46;;;;;;;0.63;0.47;;;15.20;99.90;;;;;;5118223;28;20028;-77
2022/09/08 03:48:14;;;;;;;0.17;0.17;;;15.20;99.90;;;;;;5116628;28;20041;-74
2022/09/08 03:50:39;;;;;;;0.60;0.60;;;15.20;99.90;;;;;;5115873;28;20034;-77
2022/09/08 03:53:06;;;;;;;1.85;0.47;;;15.20;99.90;;;;;;5116809;28;20106;-73
2022/09/08 03:55:32;;;;;;;0.43;0.25;;;15.10;99.90;;;;;;5096118;28;20434;-77
2022/09/08 03:57:59;;;;;;;0.20;0.20;;;15.10;99.90;;;;;;5114513;28;20055;-78
2022/09/08 04:00:25;;;;;;;0.20;0.20;;;15.10;99.90;;;;;;5114423;28;20034;-78
2022/09/08 04:02:51;;;;;;;0.28;0.20;;;15.00;99.90;;;;;;5116265;28;20023;-79
2022/09/08 04:05:17;;;;;;;0.30;0.30;;;15.10;99.90;;;;;;5121301;28;20064;-74
2022/09/08 04:07:43;;;;;;;0.22;0.22;;;15.10;99.90;;;;;;5119804;28;20047;-78
2022/09/08 04:10:11;;;;;;;0.20;0.20;;;15.10;99.90;;;;;;5120722;28;20023;-79
2022/09/08 04:12:37;;;;;;;0.30;0.30;;;15.00;99.90;;;;;;5122778;28;20026;-79
2022/09/08 04:15:04;;;;;;;3.13;1.15;;;15.00;99.90;;;;;;5119397;28;20055;-75
2022/09/08 04:17:30;;;;;;;0.15;0.13;;;15.00;99.90;;;;;;5118150;28;20083;-80
2022/09/08 04:19:58;;;;;;;0.10;0.10;;;14.90;99.90;;;;;;5117756;28;20051;-75
2022/09/08 04:22:24;;;;;;;0.20;0.20;;;14.90;99.90;;;;;;5114463;28;20472;-75
2022/09/08 04:24:51;;;;;;;0.20;0.20;;;14.90;99.90;;;;;;5096118;28;20080;-79
2022/09/08 04:27:18;;;;;;;0.15;0.10;;;14.90;99.90;;;;;;5113953;28;20072;-78
2022/09/08 04:29:44;;;;;;;0.38;0.38;;;14.90;99.90;;;;;;5114278;28;20098;-78
2022/09/08 04:32:10;;;;;;;0.30;0.30;;;14.90;99.90;;;;;;5113964;28;20487;-75
2022/09/08 04:34:36;;;;;;;0.80;0.65;;;14.80;99.90;;;;;;5113860;28;20118;-81
2022/09/08 04:37:03;;;;;;;0.30;0.30;;;14.80;99.90;;;;;;5114167;28;20487;-77
2022/09/08 04:39:30;;;;;;;0.15;0.15;;;14.80;99.90;;;;;;5114419;28;20108;-76
2022/09/08 04:41:55;;;;;;;0.35;0.35;;;14.80;99.90;;;;;;5095495;28;20100;-76
2022/09/08 04:44:21;;;;;;;0.32;0.32;;;14.80;99.90;;;;;;5113722;28;20016;-74
2022/09/08 04:46:47;;;;;;;0.30;0.30;;;14.70;99.90;;;;;;5113756;28;20042;-75
2022/09/08 04:49:13;;;;;;;0.15;0.15;;;14.80;99.90;;;;;;5114161;28;20414;-76
2022/09/08 04:51:39;;;;;;;0.75;0.43;;;14.70;99.90;;;;;;5113590;28;20027;-75
2022/09/08 04:54:05;;;;;;;0.20;0.20;;;14.80;99.90;;;;;;5095385;28;20464;-74
2022/09/08 04:56:32;;;;;;;0.40;0.30;;;14.70;99.90;;;;;;5095566;28;20403;-75
2022/09/08 04:59:00;;;;;;;0.30;0.30;;;14.70;99.90;;;;;;5113746;28;20020;-79
2022/09/08 05:01:29;;;;;;;0.90;0.35;;;14.70;99.90;;;;;;5113969;28;20019;-79
2022/09/08 05:03:59;;;;;;;0.70;0.30;;;14.60;99.90;;;;;;5095227;28;20047;-77
2022/09/08 05:06:25;;;;;;;0.63;0.40;;;14.60;99.90;;;;;;5113284;28;20388;-79
2022/09/08 05:08:54;;;;;;;0.35;0.30;;;14.60;99.90;;;;;;5113388;28;20030;-77
2022/09/08 05:11:20;;;;;;;0.35;0.35;;;14.50;99.90;;;;;;5113740;28;20027;-77
2022/09/08 05:13:49;;;;;;;0.40;0.40;;;14.50;99.90;;;;;;5113784;28;20028;-79
2022/09/08 05:16:17;;;;;;;0.30;0.30;;;14.50;99.90;;;;;;5125790;28;20028;-74
2022/09/08 05:18:51;;;;;;;0.25;0.20;;;14.60;99.90;;;;;;5125079;28;20028;-80
2022/09/08 05:21:18;;;;;;;0.40;0.40;;;14.60;99.90;;;;;;5124178;28;20019;-76
2022/09/08 05:23:44;;;;;;;0.93;0.73;;;14.50;99.90;;;;;;5119968;28;20532;-79
2022/09/08 05:26:13;;;;;;;0.20;0.20;;;14.60;99.90;;;;;;5119497;28;20023;-77
2022/09/08 05:28:40;;;;;;;0.20;0.20;;;14.60;99.90;;;;;;5118007;28;20028;-77
2022/09/08 05:31:07;;;;;;;0.30;0.30;;;14.60;99.90;;;;;;5120962;28;20036;-78
2022/09/08 05:33:33;;;;;;;0.70;0.70;;;14.60;99.90;;;;;;5122086;28;20421;-78
2022/09/08 05:36:00;;;;;;;0.10;0.10;;;14.70;99.90;;;;;;5099561;28;20089;-77
2022/09/08 05:38:26;;;;;;;0.40;0.40;;;14.70;99.90;;;;;;5118277;28;20016;-77
2022/09/08 05:40:52;;;;;;;0.30;0.30;;;14.70;99.90;;;;;;5118949;28;20062;-76
2022/09/08 05:43:18;;;;;;;2.83;0.30;;;14.80;99.90;;;;;;5101230;28;20023;-77
2022/09/08 05:45:45;;;;;;;0.28;0.28;;;14.80;99.90;;;;;;5099505;28;20032;-73
2022/09/08 05:48:11;;;;;;;0.10;0.10;;;14.90;99.90;;;;;;5117555;28;20067;-76
2022/09/08 05:50:37;;;;;;;0.32;0.32;;;15.00;99.90;;;;;;5117686;28;20027;-77
2022/09/08 05:53:03;;;;;;;0.22;0.22;;;15.00;99.90;;;;;;5118343;28;20024;-74
2022/09/08 05:55:29;;;;;;;0.25;0.25;;;;;;;;;;5117770;28;20479;-73
2022/09/08 05:57:56;;;;;;;0.22;0.22;;;15.10;99.90;;;;;;5118259;28;20052;-76
2022/09/08 06:00:22;;;;;;;0.10;0.10;;;15.10;99.90;;;;;;5118356;28;20063;-75
2022/09/08 06:02:52;;;;;;;0.52;0.15;;;15.20;99.90;;;;;;5117863;28;20024;-77
2022/09/08 06:05:19;;;;;;;0.30;0.30;;;15.20;99.90;;;;;;5117841;28;20024;-78
2022/09/08 06:07:46;;;;;;;0.20;0.20;;;15.30;99.90;;;;;;5117753;28;20032;-76
2022/09/08 06:10:12;;;;;;;0.20;0.20;;;15.30;99.90;;;;;;5117365;28;20016;-75
2022/09/08 06:12:37;;;;;;;0.47;0.47;;;15.30;99.90;;;;;;5123679;28;20075;-73
2022/09/08 06:15:03;;;;;;;0.10;0.10;;;15.30;99.90;;;;;;5123751;28;20101;-74
2022/09/08 06:17:30;;;;;;;0.30;0.30;;;15.30;99.90;;;;;;5119023;28;20480;-73
2022/09/08 06:19:56;;;;;;;0.20;0.20;;;15.30;99.90;;;;;;5101401;28;20024;-76
2022/09/08 06:22:22;;;;;;;0.32;0.30;;;15.30;99.90;;;;;;5118046;28;20103;-74
2022/09/08 06:24:48;;;;;;;3.67;0.38;;;15.30;99.90;;;;;;5117013;28;20041;-73
2022/09/08 06:27:26;;;;;;;0.25;0.25;;;15.40;99.90;;;;;;5098245;28;20032;-74
2022/09/08 06:30:12;;;;;;;0.45;0.43;;;15.40;99.90;;;;;;5116902;28;20039;-74
2022/09/08 06:32:58;;;;;;;0.30;0.28;;;15.50;99.90;;;;;;5115969;28;20036;-73
2022/09/08 06:35:30;;;;;;;0.38;0.38;;;15.60;99.90;;;;;;5115819;28;20033;-72
2022/09/08 06:37:59;;;;;;;0.52;0.30;;;15.70;99.90;;;;;;5097218;28;20027;-75
2022/09/08 06:40:32;;;;;;;1.27;0.20;;;15.70;99.90;;;;;;5095592;28;20548;-75
2022/09/08 06:43:18;;;;;;;0.55;0.30;;;15.80;99.90;;;;;;5115741;28;20019;-76
2022/09/08 06:45:56;;;;;;;1.77;0.88;;;15.90;99.90;;;;;;5097467;28;20028;-74
2022/09/08 06:48:32;;;;;;;4.57;0.63;;;16.00;99.90;;;;;;5115757;28;20549;-77
2022/09/08 06:50:58;;;;;;;0.43;0.43;;;16.10;99.90;;;;;;5116015;28;20408;-73
2022/09/08 06:53:26;;;;;;;0.13;0.13;;;16.20;99.90;;;;;;5115851;28;20024;-74
2022/09/08 06:56:34;;;;;;;0.20;0.20;;;16.20;99.90;;;;;;5118374;28;20055;-71
2022/09/08 06:59:26;;;;;;;0.10;0.10;;;16.20;99.90;;;;;;5035658;28;20122;-73
2022/09/08 07:01:59;;;;;;;0.20;0.20;;;16.10;99.90;;;;;;5118897;28;20022;-75
2022/09/08 07:04:45;;;;;;;0.10;0.10;;;16.10;99.90;;;;;;5121184;28;20043;-77
2022/09/08 07:07:38;;;;;;;1.02;0.40;;;16.20;99.90;;;;;;5108467;28;20049;-77
2022/09/08 07:10:28;;;;;;;0.00;0.00;;;16.20;99.90;;;;;;5126298;28;20035;-74
2022/09/08 07:13:03;;;;;;;0.13;0.13;;;16.10;99.90;;;;;;5119487;28;20028;-76
2022/09/08 07:15:44;;;;;;;0.73;0.32;;;16.20;99.90;;;;;;5126092;28;20030;-71
2022/09/08 07:18:38;;;;;;;6.18;0.20;;;16.20;99.90;;;;;;5122058;28;20030;-76
2022/09/08 07:21:22;;;;;;;0.10;0.10;;;16.20;99.90;;;;;;5122049;28;20016;-73
2022/09/08 07:23:50;;;;;;;0.20;0.20;;;16.30;99.90;;;;;;5123679;28;20395;-72
2022/09/08 07:26:18;;;;;;;0.38;0.25;;;16.40;99.90;;;;;;5129323;28;20030;-74
2022/09/08 07:28:49;;;;;;;0.82;0.50;;;16.50;99.90;;;;;;5131608;28;20128;-75
2022/09/08 07:31:21;;;;;;;0.55;0.38;;;16.60;99.90;;;;;;5120566;28;20020;-74
2022/09/08 07:34:06;;;;;;;0.38;0.15;;;16.80;99.90;;;;;;5127259;28;20020;-78
2022/09/08 07:37:05;;;;;;;0.60;0.45;;;16.80;99.90;;;;;;5112074;28;20019;-79
2022/09/08 07:39:45;;;;;;;0.47;0.47;;;16.80;99.90;;;;;;5129725;28;20024;-72
2022/09/08 07:42:15;;;;;;;0.10;0.10;;;17.00;99.90;;;;;;5099072;28;20047;-78
2022/09/08 07:44:41;;;;;;;0.10;0.10;;;17.20;99.90;;;;;;5115187;28;20028;-73
2022/09/08 07:47:26;;;;;;;0.08;0.08;;;17.30;99.90;;;;;;5114765;28;20089;-71
2022/09/08 07:49:58;;;;;;;0.20;0.20;;;17.50;99.90;;;;;;5115294;28;20059;-74
2022/09/08 07:52:50;;;;;;;2.92;0.80;;;17.50;99.90;;;;;;5114769;28;20027;-71
2022/09/08 07:55:26;;;;;;;0.40;0.40;;;17.40;99.90;;;;;;5115246;28;20024;-74
2022/09/08 07:58:01;;;;;;;3.03;0.75;;;17.20;99.90;;;;;;5116874;28;20368;-79
2022/09/08 08:01:03;;;;;;;0.10;0.10;;;17.20;99.90;;;;;;5124552;28;20016;-74
2022/09/08 08:03:47;;;;;;;0.25;0.20;;;17.20;99.90;;;;;;5101781;28;20043;-77
2022/09/08 08:06:13;;;;;;;0.30;0.30;;;17.20;99.90;;;;;;5122490;28;20023;-73
2022/09/08 08:09:03;;;;;;;0.25;0.15;;;17.30;99.90;;;;;;5102973;28;20038;-76
2022/09/08 08:11:28;;;;;;;;;;;17.20;99.90;;;;;;5096018;28;20042;-75
2022/09/08 08:13:57;;;;;;;0.65;0.50;;;17.00;99.90;;;;;;5097833;28;19904;-76
2022/09/08 08:16:37;;;;;;;3.13;0.37;;;16.80;99.90;;;;;;5115639;28;20023;-77
2022/09/08 08:19:27;;;;;;;0.20;0.20;;;16.90;99.90;;;;;;5115339;28;20297;-74
2022/09/08 08:22:02;;;;;;;1.27;0.52;;;17.30;99.90;;;;;;5115197;28;20023;-75
2022/09/08 08:24:34;;;;;;;4.25;0.30;;;17.90;99.90;;;;;;5114933;28;20047;-76
2022/09/08 08:27:35;;;;;;;1.35;0.17;;;19.00;99.90;;;;;;5114989;28;20047;-78
2022/09/08 08:30:04;;;;;;;0.10;0.10;;;;;;;;;;5114423;28;20487;-72
2022/09/08 08:32:35;;;;;;;0.05;0.05;;;20.00;99.90;;;;;;5123422;28;20088;-72
2022/09/08 08:35:14;;;;;;;0.30;0.30;;;19.90;99.90;;;;;;5124324;28;20026;-72
2022/09/08 08:37:41;;;;;;;0.20;0.20;;;19.80;99.90;;;;;;5120299;28;20069;-71
2022/09/08 08:40:32;;;;;;;0.30;0.30;;;19.50;99.90;;;;;;5105876;28;20140;-73
2022/09/08 08:43:33;;;;;;;2.10;0.47;;;19.60;99.90;;;;;;5123579;28;20307;-73
2022/09/08 08:46:20;;;;;;;0.30;0.25;;;20.10;99.90;;;;;;5077236;28;20038;-75
2022/09/08 08:48:54;;;;;;;0.30;0.30;;;19.50;99.90;;;;;;5124013;28;20246;-78
2022/09/08 08:52:12;;;;;;;1.75;0.82;;;19.30;99.90;;;;;;5124083;28;20046;-76
2022/09/08 08:55:21;;;;;;;0.08;0.08;;;19.00;99.90;;;;;;5081253;28;20088;-75
2022/09/08 08:58:04;;;;;;;2.80;1.27;;;18.80;99.90;;;;;;5067642;28;20031;-73
2022/09/08 09:00:56;;;;;;;3.72;0.47;;;18.40;99.90;;;;;;5105425;28;20045;-75
2022/09/08 09:03:59;;;;;;;0.22;0.22;;;18.50;99.90;;;;;;5125906;28;20048;-75
2022/09/08 09:06:37;;;;;;;0.30;0.30;;;18.50;99.90;;;;;;5100079;28;20063;-78
2022/09/08 09:09:21;;;;;;;0.25;0.25;;;18.90;99.90;;;;;;5099576;28;20026;-77
2022/09/08 09:11:49;;;;;;;1.15;0.55;;;19.80;99.90;;;;;;5120938;28;20023;-76
2022/09/08 09:14:40;;;;;;;3.63;1.13;;;20.00;99.90;;;;;;5120884;28;20048;-79
2022/09/08 09:17:29;;;;;;;0.20;0.20;;;19.80;99.90;;;;;;5100872;28;20020;-78
2022/09/08 09:20:18;;;;;;;0.40;0.40;;;19.50;99.90;;;;;;5120727;28;20035;-77
2022/09/08 09:23:25;;;;;;;2.83;0.30;;;18.90;99.90;;;;;;5110490;28;20027;-77
2022/09/08 09:26:07;;;;;;;0.10;0.10;;;19.00;99.90;;;;;;5102915;28;20020;-77
2022/09/08 09:28:48;;;;;;;0.17;0.17;;;19.20;99.90;;;;;;5118543;28;20067;-77
2022/09/08 09:31:35;;;;;;;0.13;0.10;;;19.70;99.90;;;;;;5117925;28;20422;-77
2022/09/08 09:34:12;;;;;;;0.05;0.05;;;20.20;99.90;;;;;;5118182;28;20016;-78
2022/09/08 09:36:55;;;;;;;0.70;0.20;;;20.20;99.90;;;;;;5118711;28;20024;-75
2022/09/08 09:39:26;;;;;;;0.10;0.10;;;20.30;99.90;;;;;;5117213;28;20027;-77
2022/09/08 09:42:19;;;;;;;0.10;0.10;;;20.70;99.90;;;;;;5116978;28;20076;-76
2022/09/08 09:45:25;;;;;;;0.20;0.20;;;21.20;99.90;;;;;;5117415;28;20098;-77
2022/09/08 09:48:12;;;;;;;0.32;0.32;;;21.10;99.90;;;;;;5118363;28;20059;-76
2022/09/08 09:50:46;;;;;;;0.10;0.10;;;21.00;99.90;;;;;;5098917;28;20023;-75
2022/09/08 09:53:24;;;;;;;1.38;0.10;;;20.20;99.90;;;;;;5118747;28;20023;-76
2022/09/08 09:56:06;;;;;;;2.47;0.30;;;20.00;99.90;;;;;;5100005;28;20020;-76
2022/09/08 09:58:57;;;;;;;0.20;0.17;;;19.70;99.90;;;;;;5118286;28;20024;-74
2022/09/08 10:01:38;;;;;;;0.98;0.32;;;;;;;;;;5098467;28;20023;-76
2022/09/08 10:04:12;;;;;;;1.55;0.25;;;19.50;99.90;;;;;;5116866;28;20088;-78
2022/09/08 10:07:11;;;;;;;0.30;0.30;;;19.80;99.90;;;;;;5098581;28;20044;-74
2022/09/08 10:10:14;;;;;;;0.40;0.10;;;20.10;99.90;;;;;;5117056;28;20024;-76
2022/09/08 10:13:10;;;;;;;0.40;0.30;;;20.40;99.90;;;;;;5098630;28;20265;-75
2022/09/08 10:15:54;;;;;;;0.00;0.00;;;20.50;99.90;;;;;;5116932;28;20028;-75
2022/09/08 10:18:35;;;;;;;1.55;0.28;;;20.40;99.90;;;;;;5098557;28;20031;-74
2022/09/08 10:21:19;;;;;;;2.10;0.38;;;20.30;99.90;;;;;;5116391;28;20023;-76
2022/09/08 10:24:06;;;;;;;0.90;0.73;;;20.50;99.90;;;;;;5116529;28;20076;-77
2022/09/08 10:27:26;;;;;;;0.10;0.10;;;20.70;99.90;;;;;;5116433;28;20092;-75
2022/09/08 10:30:17;;;;;;;2.22;0.25;;;20.70;99.90;;;;;;5014218;28;20030;-76
2022/09/08 10:33:08;;;;;;;2.85;0.22;;;20.70;99.90;;;;;;5116254;28;20020;-76
2022/09/08 10:35:52;;;;;;;0.57;0.38;;;20.80;99.90;;;;;;5115983;28;20054;-78
2022/09/08 10:38:50;;;;;;;0.10;0.10;;;21.10;99.90;;;;;;5097692;28;20035;-78
2022/09/08 10:41:40;;;;;;;0.68;0.38;;;21.40;99.90;;;;;;5097636;28;20472;-77
2022/09/08 10:44:12;;;;;;;0.00;0.00;;;21.70;99.90;;;;;;5115946;28;20028;-79
2022/09/08 10:47:03;;;;;;;2.83;0.30;;;21.90;99.90;;;;;;5115777;28;20132;-77
2022/09/08 10:49:57;;;;;;;0.88;0.20;;;21.90;99.90;;;;;;5097527;28;20127;-76
2022/09/08 10:52:48;;;;;;;0.57;0.20;;;22.10;99.90;;;;;;5115576;28;20024;-77
2022/09/08 10:55:41;;;;;;;0.20;0.20;;;22.30;99.90;;;;;;5097310;28;20020;-79
2022/09/08 10:58:45;;;;;;;1.25;0.98;;;22.20;98.90;;;;;;5115719;28;20027;-77
2022/09/08 11:01:41;;;;;;;0.35;0.32;;;22.30;99.90;;;;;;5115682;28;20031;-76
2022/09/08 11:04:41;;;;;;;0.17;0.17;;;22.50;99.90;;;;;;5097156;28;20051;-77
2022/09/08 11:07:30;;;;;;;0.20;0.20;;;22.30;96.40;;;;;;5061188;28;20039;-74
2022/09/08 11:10:08;;;;;;;0.10;0.10;;;22.30;97.70;;;;;;5115443;28;20020;-74
2022/09/08 11:12:49;;;;;;;0.22;0.10;;;22.70;99.60;;;;;;5115314;28;20026;-74
2022/09/08 11:15:43;;;;;;;0.10;0.10;;;23.10;95.70;;;;;;5115167;28;20537;-75
2022/09/08 11:18:14;;;;;;;0.40;0.40;;;22.70;91.80;;;;;;5096928;28;20376;-75
2022/09/08 11:20:47;;;;;;;0.10;0.10;;;22.30;91.00;;;;;;5096903;28;20059;-76
2022/09/08 11:23:42;;;;;;;0.10;0.10;;;22.20;90.90;;;;;;5096749;28;20027;-75
2022/09/08 11:26:48;;;;;;;0.52;0.30;;;22.30;91.30;;;;;;5096274;28;20380;-74
2022/09/08 11:29:16;;;;;;;0.30;0.30;;;22.80;92.50;;;;;;5097220;28;20150;-74
2022/09/08 11:32:28;;;;;;;0.13;0.10;;;22.70;90.20;;;;;;5114823;28;20016;-75
2022/09/08 11:35:21;;;;;;;0.22;0.22;;;22.90;88.00;;;;;;5114886;28;20023;-74
2022/09/08 11:38:33;;;;;;;0.00;0.00;;;22.50;86.50;;;;;;5114868;28;20072;-75
2022/09/08 11:41:17;;;;;;;0.43;0.43;;;22.70;83.60;;;;;;5063022;28;20086;-74
2022/09/08 11:44:01;;;;;;;0.20;0.20;;;22.70;78.70;;;;;;5114692;28;20054;-78
2022/09/08 11:46:47;;;;;;;0.08;0.08;;;22.50;83.80;;;;;;5114731;28;20031;-72
2022/09/08 11:49:18;;;;;;;0.43;0.43;;;21.50;86.40;;;;;;5114804;28;20046;-74
2022/09/08 11:52:09;;;;;;;0.20;0.13;;;21.20;93.00;;;;;;5096301;28;20110;-74
2022/09/08 11:55:12;;;;;;;0.10;0.10;;;21.20;91.00;;;;;;5114453;28;20019;-74
2022/09/08 11:58:12;;;;;;;0.20;0.20;;;21.20;91.40;;;;;;5114625;28;20054;-74
2022/09/08 12:00:49;;;;;;;0.00;0.00;;;22.30;91.50;;;;;;5096187;28;20031;-77
2022/09/08 12:04:09;;;;;;;0.20;0.20;;;23.60;81.60;;;;;;5114256;28;20043;-74
2022/09/08 12:06:46;;;;;;;0.20;0.10;;;23.00;79.70;;;;;;4995538;28;20022;-77
2022/09/08 12:09:36;;;;;;;2.83;0.17;;;23.00;83.60;;;;;;5095799;28;20471;-75
2022/09/08 12:12:23;;;;;;;0.00;0.00;;;24.10;77.70;;;;;;5095494;28;20034;-75
2022/09/08 12:15:20;;;;;;;0.70;0.35;;;24.20;74.00;;;;;;5114071;28;20016;-74
2022/09/08 12:18:14;;;;;;;0.85;0.32;;;23.20;73.50;;;;;;5023923;28;20045;-74
2022/09/08 12:21:21;;;;;;;1.40;0.50;;;21.90;75.70;;;;;;5095841;28;20486;-73
2022/09/08 12:24:04;;;;;;;1.85;0.25;;;22.10;76.30;;;;;;5063219;28;20080;-74
2022/09/08 12:26:41;;;;;;;0.30;0.30;;;22.30;77.90;;;;;;5113844;28;20028;-73
2022/09/08 12:29:10;;;;;;;0.55;0.55;;;23.50;73.40;;;;;;5095565;28;20030;-75
2022/09/08 12:31:57;;;;;;;0.63;0.40;;;23.70;73.30;;;;;;5095642;28;20024;-75
2022/09/08 12:35:08;;;;;;;1.55;0.45;;;24.30;70.20;;;;;;5095433;28;20055;-75
2022/09/08 12:38:11;;;;;;;0.28;0.28;;;25.10;70.40;;;;;;5123406;28;20220;-74
2022/09/08 12:40:55;;;;;;;0.20;0.15;;;25.70;64.40;;;;;;5108862;28;20027;-75
2022/09/08 12:43:22;;;;;;;0.00;0.00;;;26.10;64.30;;;;;;5113840;28;20376;-76
2022/09/08 12:46:13;;;;;;;1.50;0.30;;;26.70;63.60;;;;;;5095538;28;20024;-77
2022/09/08 12:48:52;;;;;;;0.30;0.30;;;26.10;58.00;;;;;;5113744;28;20031;-75
2022/09/08 12:51:29;;;;;;;3.90;0.52;;;24.80;61.80;;;;;;5095567;28;20052;-76
2022/09/08 12:54:25;;;;;;;0.10;0.10;;;23.80;63.10;;;;;;5113720;28;20028;-77
2022/09/08 12:56:50;;;;;;;0.10;0.10;;;23.80;64.90;;;;;;5113768;28;20042;-75
2022/09/08 12:59:30;;;;;;;1.23;0.17;;;23.70;64.40;;;;;;5113622;28;20027;-76
2022/09/08 13:02:05;;;;;;;0.32;0.20;;;23.10;64.90;;;;;;5095264;28;20076;-75
2022/09/08 13:04:51;;;;;;;7.63;0.55;;;22.60;67.80;;;;;;5113326;28;20043;-74
2022/09/08 13:07:46;;;;;;;1.48;0.65;;;22.60;69.00;;;;;;5113330;28;20509;-75
2022/09/08 13:10:20;;;;;;;0.10;0.10;;;23.60;66.80;;;;;;5113419;28;20039;-74
2022/09/08 13:12:59;;;;;;;0.08;0.08;;;24.40;63.10;;;;;;5095590;28;20036;-76
2022/09/08 13:15:29;;;;;;;0.10;0.10;;;24.80;64.70;;;;;;5113693;28;20023;-74
2022/09/08 13:18:04;;;;;;;0.17;0.13;;;25.00;62.30;;;;;;5095260;28;20115;-77
2022/09/08 13:20:57;;;;;;;0.00;0.00;;;25.40;61.20;;;;;;5095222;28;20028;-74
2022/09/08 13:23:41;;;;;;;0.10;0.00;;;25.90;62.20;;;;;;5113421;28;20023;-75
2022/09/08 13:26:30;;;;;;;0.88;0.40;;;26.20;61.00;;;;;;5113260;28;20024;-76
2022/09/08 13:29:10;;;;;;;0.65;0.20;;;26.50;59.20;;;;;;5113141;28;20157;-75
2022/09/08 13:31:43;;;;;;;1.15;0.10;;;26.60;56.10;;;;;;5095017;28;20476;-74
2022/09/08 13:34:09;;;;;;;0.10;0.10;;;;;;;;;;5113363;28;20099;-75
2022/09/08 13:37:13;;;;;;;0.40;0.00;;;26.10;57.40;;;;;;5095025;28;20167;-75
2022/09/08 13:39:47;;;;;;;0.20;0.20;;;25.40;56.30;;;;;;4994592;28;20427;-75